Accueil
METAR-TAF:

METAR-TAF

Aéroports :

Aéroport international de Bagdad

Bagdad, Irak

latitude: 33-15-45N, longitude: 44-14-04E, altitude: 35 m

Observation

Le bulletin a été fait il y a 14 minutes, à 21:00 UTC
Vent 12 kt de ouest
Température 35°C
Humidité 17%
Pression 999 hPa
Visibilité 10 km ou plus
pas de nuages en-dessous de 1500 mètres et pas de cumulonimbus.

METAR: ORBI 172100Z 28012KT CAVOK 35/06 Q0999 NOSIG

Heure: 00:14 (21:14 UTC)

Prévision

Le bulletin a été fait il y a 5 heures et 14 minutes, à 16:00 UTC
Prévision valable du 17 à 18 UTC au 18 à 18 UTC
Vent 8 kt de nord/nord-ouest
Visibilité 10 km ou plus
pas de nuages en-dessous de 1500 mètres et pas de cumulonimbus.
Evoluant progressivement
du 18 à 06 UTC au 18 à 08 UTC
Vent 16 kt de nord/nord-ouest

TAF: ORBI 171600Z 1718/1818 33008KT CAVOK BECMG 1806/1808 33016KT

Observations et prévisions météorologiques de plus de 4000 aéroports (messages METAR et TAF).

Les stations disponibles sont représentées par des disques jaunes et rouges sur la carte.

Passer la souris dessus pour voir le nom de la station.

Cliquer dessus pour voir les observations et prévisions météorologiques.

Pour changer de carte: cliquez sur les boutons verts avec une croix noire pour zoomer, sur le bouton vert avec un tiret pour effectuer un zoom arrière, ou sur les flèches vertes pour les cartes adjacentes.


METAR-TAF: